createdAt,value
2019-03-03T00:03:32.595Z,72.69
2019-03-03T00:07:39.555Z,72.73
2019-03-03T00:11:46.546Z,73.05
2019-03-03T00:15:54.449Z,73.73
2019-03-03T00:20:01.347Z,74.00
2019-03-03T00:24:09.084Z,73.97
2019-03-03T00:28:15.898Z,74.31
2019-03-03T00:32:22.787Z,74.35
2019-03-03T00:36:48.568Z,74.10
2019-03-03T00:41:26.414Z,74.45
2019-03-03T00:45:40.216Z,74.29
2019-03-03T00:50:05.560Z,74.31
2019-03-03T00:54:29.957Z,74.63
2019-03-03T00:58:52.102Z,74.42
2019-03-03T01:03:16.391Z,74.77
2019-03-03T01:07:35.754Z,74.15
2019-03-03T01:11:52.054Z,74.47
2019-03-03T01:16:33.251Z,74.60
2019-03-03T01:21:17.426Z,74.22
2019-03-03T01:25:24.305Z,74.01
2019-03-03T01:29:31.463Z,73.59
2019-03-03T01:33:38.361Z,73.01
2019-03-03T01:37:45.352Z,72.74
2019-03-03T01:41:52.297Z,72.51
2019-03-03T01:45:59.168Z,72.09
2019-03-03T01:50:07.639Z,71.87
2019-03-03T01:54:14.492Z,71.52
2019-03-03T01:58:21.384Z,71.20
2019-03-03T02:02:28.486Z,71.01
2019-03-03T02:06:35.367Z,70.81
2019-03-03T02:10:42.257Z,70.65
2019-03-03T02:14:49.146Z,70.52
2019-03-03T02:18:56.103Z,70.21
2019-03-03T02:23:03.151Z,70.19
2019-03-03T02:27:10.008Z,69.97
2019-03-03T02:31:16.896Z,70.21
2019-03-03T02:35:24.085Z,70.01
2019-03-03T02:39:30.937Z,70.03
2019-03-03T02:43:41.563Z,69.98
2019-03-03T02:47:48.492Z,70.44
2019-03-03T02:51:57.483Z,70.15
2019-03-03T02:56:04.322Z,70.03
2019-03-03T03:00:19.030Z,70.29
2019-03-03T03:04:26.619Z,70.43
2019-03-03T03:08:37.972Z,70.69
2019-03-03T03:12:59.605Z,70.61
2019-03-03T03:17:14.260Z,70.70
2019-03-03T03:21:46.200Z,70.91
2019-03-03T03:26:10.866Z,70.85
2019-03-03T03:30:29.560Z,71.00
2019-03-03T03:34:48.080Z,70.98
2019-03-03T03:39:08.319Z,70.94
2019-03-03T03:43:34.083Z,70.85
2019-03-03T03:48:00.458Z,70.83
2019-03-03T03:52:41.812Z,70.78
2019-03-03T03:57:25.772Z,70.65
2019-03-03T04:01:51.489Z,70.68
2019-03-03T04:06:17.252Z,70.60
2019-03-03T04:10:31.072Z,70.60
2019-03-03T04:14:46.347Z,70.50
2019-03-03T04:19:21.127Z,70.58
2019-03-03T04:23:45.700Z,70.52
2019-03-03T04:27:58.918Z,70.49
2019-03-03T04:32:23.183Z,70.41
2019-03-03T04:36:42.089Z,70.52
2019-03-03T04:40:54.100Z,70.44
2019-03-03T04:45:19.900Z,70.49
2019-03-03T04:49:44.581Z,70.53
2019-03-03T04:54:16.027Z,70.20
2019-03-03T04:58:38.680Z,70.60
2019-03-03T05:03:03.259Z,70.55
2019-03-03T05:07:14.381Z,70.56
2019-03-03T05:12:33.969Z,70.61
2019-03-03T05:16:56.976Z,70.66
2019-03-03T05:21:03.987Z,70.79
2019-03-03T05:25:10.899Z,71.11
2019-03-03T05:29:17.715Z,70.97
2019-03-03T05:33:24.552Z,70.91
2019-03-03T05:37:31.468Z,70.83
2019-03-03T05:41:38.508Z,71.09
2019-03-03T05:45:45.394Z,71.03
2019-03-03T05:49:52.264Z,70.96
2019-03-03T05:53:59.088Z,70.95
2019-03-03T05:58:05.929Z,70.68
2019-03-03T06:02:12.783Z,70.64
2019-03-03T06:06:19.681Z,70.53
2019-03-03T06:10:27.646Z,70.51
2019-03-03T06:14:36.541Z,70.28
2019-03-03T06:18:43.419Z,69.99
2019-03-03T06:22:50.308Z,69.93
2019-03-03T06:26:57.149Z,69.58
2019-03-03T06:31:03.967Z,69.61
2019-03-03T06:35:11.251Z,69.48
2019-03-03T06:39:18.086Z,69.20
2019-03-03T06:43:24.968Z,69.25
2019-03-03T06:47:31.771Z,68.86
2019-03-03T06:51:39.738Z,68.73
2019-03-03T06:55:46.612Z,68.59
2019-03-03T06:59:53.521Z,68.41
2019-03-03T07:04:00.426Z,68.34
2019-03-03T07:08:07.303Z,68.14
2019-03-03T07:12:14.235Z,68.18
2019-03-03T07:16:21.041Z,68.04
2019-03-03T07:20:27.935Z,68.14
2019-03-03T07:24:39.305Z,67.92
2019-03-03T07:28:46.391Z,68.05
2019-03-03T07:33:13.558Z,67.75
2019-03-03T07:37:20.480Z,67.65
2019-03-03T07:41:27.348Z,67.78
2019-03-03T07:45:34.341Z,67.73
2019-03-03T07:49:41.400Z,67.62
2019-03-03T07:53:48.451Z,67.63
2019-03-03T07:57:55.294Z,67.62
2019-03-03T08:02:02.198Z,67.58
2019-03-03T08:06:09.224Z,67.40
2019-03-03T08:10:17.353Z,67.39
2019-03-03T08:14:30.381Z,67.36
2019-03-03T08:18:38.863Z,67.38
2019-03-03T08:22:45.882Z,67.37
2019-03-03T08:26:52.898Z,67.37
2019-03-03T08:31:01.040Z,67.27
2019-03-03T08:35:10.770Z,67.09
2019-03-03T08:39:18.876Z,67.19
2019-03-03T08:43:53.568Z,67.38
2019-03-03T08:48:14.873Z,67.13
2019-03-03T08:52:49.543Z,67.24
2019-03-03T08:57:21.361Z,67.12
2019-03-03T09:01:48.021Z,66.98
2019-03-03T09:06:17.192Z,67.04
2019-03-03T09:10:52.118Z,66.87
2019-03-03T09:15:25.002Z,66.78
2019-03-03T09:19:43.318Z,66.80
2019-03-03T09:24:26.355Z,66.80
2019-03-03T09:28:58.357Z,66.80
2019-03-03T09:33:33.026Z,66.81
2019-03-03T09:37:54.521Z,66.44
2019-03-03T09:42:17.333Z,66.54
2019-03-03T09:46:46.239Z,65.98
2019-03-03T09:51:13.609Z,66.03
2019-03-03T09:55:29.324Z,65.67
2019-03-03T09:59:46.226Z,65.77
2019-03-03T10:04:08.881Z,65.26
2019-03-03T10:08:24.374Z,64.77
2019-03-03T10:12:50.104Z,64.70
2019-03-03T10:17:14.437Z,64.81
2019-03-03T10:21:38.822Z,64.37
2019-03-03T10:26:04.607Z,64.00
2019-03-03T10:30:35.435Z,63.63
2019-03-03T10:34:59.886Z,63.71
2019-03-03T10:39:16.044Z,63.54
2019-03-03T10:43:37.779Z,63.51
2019-03-03T10:48:06.630Z,63.19
2019-03-03T10:52:20.309Z,62.63
2019-03-03T10:56:39.612Z,62.66
2019-03-03T11:01:13.501Z,62.99
2019-03-03T11:05:37.682Z,62.74
2019-03-03T11:10:12.546Z,62.76
2019-03-03T11:14:25.956Z,62.36
2019-03-03T11:18:57.929Z,62.32
2019-03-03T11:23:18.328Z,62.05
2019-03-03T11:27:47.202Z,62.17
2019-03-03T11:32:15.944Z,61.95
2019-03-03T11:36:58.507Z,61.96
2019-03-03T11:41:24.670Z,62.06
2019-03-03T11:45:49.507Z,61.86
2019-03-03T11:50:05.083Z,61.31
2019-03-03T11:54:26.012Z,61.32
2019-03-03T11:58:49.602Z,61.53
2019-03-03T12:03:30.698Z,60.92
2019-03-03T12:07:55.163Z,61.58
2019-03-03T12:12:30.331Z,62.00
2019-03-03T12:16:47.214Z,62.73
2019-03-03T12:21:22.455Z,62.81
2019-03-03T12:25:51.229Z,62.41
2019-03-03T12:30:25.877Z,61.66
2019-03-03T12:34:45.582Z,62.12
2019-03-03T12:39:20.663Z,62.40
2019-03-03T12:43:46.423Z,63.21
2019-03-03T12:48:12.299Z,64.22
2019-03-03T12:52:26.991Z,64.91
2019-03-03T12:56:52.732Z,65.34
2019-03-03T13:01:24.555Z,65.77
2019-03-03T13:05:53.276Z,66.81
2019-03-03T13:10:24.899Z,65.91
2019-03-03T13:14:42.371Z,66.12
2019-03-03T13:19:17.132Z,65.81
2019-03-03T13:23:37.796Z,65.42
2019-03-03T13:27:52.438Z,64.70
2019-03-03T13:32:18.310Z,64.10
2019-03-03T13:36:47.345Z,63.22
2019-03-03T13:41:14.233Z,62.67
2019-03-03T13:45:21.278Z,62.26
2019-03-03T13:49:28.486Z,62.24
2019-03-03T13:53:35.445Z,61.90
2019-03-03T13:57:45.794Z,62.19
2019-03-03T14:01:52.746Z,62.37
2019-03-03T14:05:59.994Z,62.31
2019-03-03T14:10:08.718Z,62.10
2019-03-03T14:14:16.053Z,62.54
2019-03-03T14:18:22.982Z,62.57
2019-03-03T14:22:30.197Z,62.40
2019-03-03T14:26:37.125Z,62.76
2019-03-03T14:30:44.140Z,62.47
2019-03-03T14:34:51.396Z,62.09
2019-03-03T14:38:58.815Z,61.92
2019-03-03T14:43:09.853Z,61.72
2019-03-03T14:47:18.050Z,61.97
2019-03-03T14:51:25.229Z,62.08
2019-03-03T14:55:32.351Z,61.92
2019-03-03T14:59:39.328Z,61.59
2019-03-03T15:03:46.843Z,61.00
2019-03-03T15:07:56.231Z,60.80
2019-03-03T15:12:03.295Z,60.40
2019-03-03T15:16:10.340Z,60.36
2019-03-03T15:20:18.380Z,60.61
2019-03-03T15:24:25.852Z,61.03
2019-03-03T15:28:32.738Z,61.27
2019-03-03T15:32:39.835Z,61.77
2019-03-03T15:36:47.359Z,62.74
2019-03-03T15:40:54.466Z,63.14
2019-03-03T15:45:03.373Z,63.89
2019-03-03T15:49:10.567Z,64.10
2019-03-03T15:53:17.967Z,64.05
2019-03-03T15:57:25.080Z,63.85
2019-03-03T16:01:32.271Z,64.27
2019-03-03T16:05:39.544Z,64.19
2019-03-03T16:09:46.896Z,64.43
2019-03-03T16:13:53.912Z,64.33
2019-03-03T16:18:01.043Z,64.40
2019-03-03T16:22:08.479Z,64.33
2019-03-03T16:26:19.063Z,64.58
2019-03-03T16:30:27.276Z,64.50
2019-03-03T16:34:34.157Z,64.81
2019-03-03T16:38:41.523Z,65.44
2019-03-03T16:42:48.852Z,64.47
2019-03-03T16:46:57.340Z,64.30
2019-03-03T16:51:04.476Z,64.05
2019-03-03T16:55:13.279Z,63.82
2019-03-03T16:59:20.417Z,63.89
2019-03-03T17:03:27.647Z,63.83
2019-03-03T17:07:34.791Z,63.26
2019-03-03T17:11:41.911Z,63.13
2019-03-03T17:15:48.871Z,62.90
2019-03-03T17:19:56.016Z,62.61
2019-03-03T17:24:03.554Z,62.44
2019-03-03T17:28:10.483Z,62.27
2019-03-03T17:32:17.471Z,62.24
2019-03-03T17:36:24.570Z,62.13
2019-03-03T17:40:31.584Z,61.84
2019-03-03T17:44:38.484Z,61.78
2019-03-03T17:48:45.716Z,61.78
2019-03-03T17:52:52.994Z,61.67
2019-03-03T17:56:59.910Z,61.72
2019-03-03T18:01:07.980Z,61.65
2019-03-03T18:05:17.479Z,61.80
2019-03-03T18:09:24.908Z,61.81
2019-03-03T18:13:32.099Z,61.95
2019-03-03T18:17:39.227Z,61.67
2019-03-03T18:21:46.537Z,61.63
2019-03-03T18:25:53.494Z,61.95
2019-03-03T18:30:02.633Z,61.65
2019-03-03T18:34:09.957Z,61.77
2019-03-03T18:38:17.961Z,61.75
2019-03-03T18:42:25.232Z,61.77
2019-03-03T18:46:32.467Z,61.72
2019-03-03T18:50:39.491Z,62.00
2019-03-03T18:54:47.483Z,61.43
2019-03-03T18:58:54.480Z,61.26
2019-03-03T19:03:01.613Z,61.20
2019-03-03T19:07:09.026Z,61.12
2019-03-03T19:11:16.102Z,61.12
2019-03-03T19:15:23.428Z,60.95
2019-03-03T19:19:30.274Z,60.77
2019-03-03T19:23:39.075Z,60.83
2019-03-03T19:27:46.112Z,60.71
2019-03-03T19:31:53.055Z,60.81
2019-03-03T19:36:00.148Z,60.67
2019-03-03T19:40:09.681Z,60.95
2019-03-03T19:44:17.920Z,60.88
2019-03-03T19:48:25.327Z,60.82
2019-03-03T19:52:32.326Z,60.89
2019-03-03T19:56:42.121Z,61.31
2019-03-03T20:00:56.657Z,61.30
2019-03-03T20:05:03.761Z,61.44
2019-03-03T20:09:14.409Z,61.36
2019-03-03T20:13:21.565Z,61.34
2019-03-03T20:17:31.399Z,61.16
2019-03-03T20:21:38.546Z,61.22
2019-03-03T20:25:45.696Z,61.32
2019-03-03T20:29:54.592Z,61.39
2019-03-03T20:34:01.731Z,61.65
2019-03-03T20:38:12.875Z,61.65
2019-03-03T20:42:20.021Z,61.50
2019-03-03T20:46:27.004Z,61.58
2019-03-03T20:50:34.133Z,61.52
2019-03-03T20:54:42.516Z,61.63
2019-03-03T20:58:49.460Z,61.59
2019-03-03T21:02:57.316Z,61.64
2019-03-03T21:07:04.432Z,61.94
2019-03-03T21:11:12.393Z,61.88
2019-03-03T21:15:19.242Z,61.85
2019-03-03T21:19:26.386Z,62.10
2019-03-03T21:23:33.517Z,62.01
2019-03-03T21:27:40.659Z,61.85
2019-03-03T21:31:47.667Z,61.85
2019-03-03T21:35:54.683Z,61.75
2019-03-03T21:40:01.654Z,61.63
2019-03-03T21:44:09.198Z,61.68
2019-03-03T21:48:16.084Z,61.51
2019-03-03T21:52:23.300Z,61.43
2019-03-03T21:56:30.174Z,61.40
2019-03-03T22:00:39.241Z,61.35
2019-03-03T22:04:47.124Z,61.25
2019-03-03T22:08:55.208Z,61.23
2019-03-03T22:13:07.673Z,61.20
2019-03-03T22:17:14.770Z,61.58
2019-03-03T22:21:21.681Z,61.92
2019-03-03T22:25:46.537Z,62.07
2019-03-03T22:29:53.547Z,62.19
2019-03-03T22:34:01.487Z,61.91
2019-03-03T22:38:08.876Z,61.95
2019-03-03T22:42:15.866Z,62.53
2019-03-03T22:46:22.766Z,62.45
2019-03-03T22:50:31.424Z,62.57
2019-03-03T22:54:38.276Z,63.03
2019-03-03T22:58:50.365Z,62.66
2019-03-03T23:02:57.429Z,62.96
2019-03-03T23:07:17.639Z,63.14
2019-03-03T23:11:51.131Z,63.56
2019-03-03T23:17:00.415Z,63.93
2019-03-03T23:22:13.192Z,63.94
2019-03-03T23:26:20.100Z,64.51
2019-03-03T23:30:27.078Z,64.58
2019-03-03T23:34:34.073Z,64.78
2019-03-03T23:38:40.958Z,64.87
2019-03-03T23:42:47.854Z,64.68
2019-03-03T23:46:54.758Z,64.65
2019-03-03T23:51:01.804Z,64.60
2019-03-03T23:55:08.731Z,65.50
2019-03-03T23:59:15.672Z,64.35
